Time;durP1;ratioP1;P1;durP2;ratioP2;P2;SDS_P1;SDS_P2;PMS_P1;PMS_P2;Temp;Humidity;BMP_temperature;BMP_pressure;BME280_temperature;BME280_humidity;BME280_pressure;Samples;Min_cycle;Max_cycle;Signal;HPM_P1;HPM_P2
2022/05/17 00:00:42;;;;;;;;;8.50;8.50;;;;;;;;5031314;28;45381;-63
2022/05/17 00:03:07;;;;;;;;;8.50;8.50;;;;;;;;5032685;28;46708;-63
2022/05/17 00:05:32;;;;;;;;;11.25;9.50;;;;;;;;5033186;28;46098;-63
2022/05/17 00:07:57;;;;;;;;;10.75;10.75;;;;;;;;5031156;28;45583;-63
2022/05/17 00:10:23;;;;;;;;;12.50;12.50;;;;;;;;5032221;28;45764;-63
2022/05/17 00:12:51;;;;;;;;;9.50;9.50;;;;;;;;5032367;28;46802;-64
2022/05/17 00:15:17;;;;;;;;;8.50;8.50;;;;;;;;5030112;28;45487;-63
2022/05/17 00:17:42;;;;;;;;;11.75;8.25;;;;;;;;5046056;28;45487;-65
2022/05/17 00:20:08;;;;;;;;;9.25;9.00;;;;;;;;5029636;28;45446;-63
2022/05/17 00:22:33;;;;;;;;;10.00;10.00;;;;;;;;5032105;28;45599;-64
2022/05/17 00:24:59;;;;;;;;;5.75;4.75;;;;;;;;5032419;28;45684;-64
2022/05/17 00:27:24;;;;;;;;;6.00;6.00;;;;;;;;5032400;28;46018;-64
2022/05/17 00:29:50;;;;;;;;;5.00;5.00;;;;;;;;5034492;28;45351;-63
2022/05/17 00:32:15;;;;;;;;;5.75;5.75;;;;;;;;5032053;28;45680;-63
2022/05/17 00:34:41;;;;;;;;;4.50;4.00;;;;;;;;5030576;28;46020;-63
2022/05/17 00:37:06;;;;;;;;;7.00;6.00;;;;;;;;5032063;28;45564;-63
2022/05/17 00:39:32;;;;;;;;;6.75;5.50;;;;;;;;5032116;28;45630;-63
2022/05/17 00:41:58;;;;;;;;;7.25;6.25;;;;;;;;5032744;28;45731;-63
2022/05/17 00:47:27;;;;;;;;;6.00;5.00;;;;;;;;5029006;28;45615;-63
2022/05/17 00:49:55;;;;;;;;;5.00;5.00;;;;;;;;5035430;28;45597;-63
2022/05/17 00:52:23;;;;;;;;;4.00;4.00;;;;;;;;5038435;28;46873;-63
2022/05/17 00:54:49;;;;;;;;;4.25;4.25;;;;;;;;5038549;28;45409;-63
2022/05/17 00:57:22;;;;;;;;;4.50;4.50;;;;;;;;5038687;28;45324;-63
2022/05/17 00:59:48;;;;;;;;;4.00;4.00;;;;;;;;5036411;28;45597;-62
2022/05/17 01:02:13;;;;;;;;;6.00;5.00;;;;;;;;5036403;28;45616;-63
2022/05/17 01:04:39;;;;;;;;;4.00;4.00;;;;;;;;5038224;28;45404;-63
2022/05/17 01:07:06;;;;;;;;;4.00;4.00;;;;;;;;5038425;28;45662;-63
2022/05/17 01:09:32;;;;;;;;;4.50;4.50;;;;;;;;5038604;28;45618;-63
2022/05/17 01:11:57;;;;;;;;;4.00;4.00;;;;;;;;5039231;28;46578;-63
2022/05/17 01:17:07;;;;;;;;;8.50;6.25;;;;;;;;5038481;28;45411;-63
2022/05/17 01:19:33;;;;;;;;;3.00;3.00;;;;;;;;5036718;28;45421;-64
2022/05/17 01:21:58;;;;;;;;;4.00;4.00;;;;;;;;5038087;28;46459;-65
2022/05/17 01:24:25;;;;;;;;;4.25;4.25;;;;;;;;5038256;28;45408;-65
2022/05/17 01:26:55;;;;;;;;;3.25;3.25;;;;;;;;5040674;28;45802;-63
2022/05/17 01:29:20;;;;;;;;;3.75;3.25;;;;;;;;5037820;28;45445;-63
2022/05/17 01:31:45;;;;;;;;;5.75;4.75;;;;;;;;5037650;28;46431;-64
2022/05/17 01:34:11;;;;;;;;;4.75;4.75;;;;;;;;5038068;28;45524;-63
2022/05/17 01:36:37;;;;;;;;;4.75;3.75;;;;;;;;5038061;28;45598;-64
2022/05/17 01:39:03;;;;;;;;;5.25;3.75;;;;;;;;5038713;28;45517;-64
2022/05/17 01:41:28;;;;;;;;;2.50;2.50;;;;;;;;5039476;28;46257;-63
2022/05/17 01:43:53;;;;;;;;;5.00;3.75;;;;;;;;5037875;28;45449;-63
2022/05/17 01:46:19;;;;;;;;;4.00;4.00;;;;;;;;5033910;28;45559;-64
2022/05/17 01:48:45;;;;;;;;;4.00;3.00;;;;;;;;5025716;28;45393;-63
2022/05/17 01:51:10;;;;;;;;;4.75;4.75;;;;;;;;5036617;28;48924;-63
2022/05/17 01:53:36;;;;;;;;;3.25;3.00;;;;;;;;5050854;28;45748;-64
2022/05/17 01:56:05;;;;;;;;;4.00;4.00;;;;;;;;5034655;28;45478;-64
2022/05/17 01:58:30;;;;;;;;;3.00;3.00;;;;;;;;5034887;28;45520;-63
2022/05/17 02:00:56;;;;;;;;;4.00;4.00;;;;;;;;5034242;28;46140;-64
2022/05/17 02:03:21;;;;;;;;;5.75;4.75;;;;;;;;5034512;28;45472;-64
2022/05/17 02:05:46;;;;;;;;;3.00;3.00;;;;;;;;5036760;28;45461;-63
2022/05/17 02:08:11;;;;;;;;;4.00;3.00;;;;;;;;5034432;28;45632;-64
2022/05/17 02:10:37;;;;;;;;;4.75;3.75;;;;;;;;5033948;28;45990;-65
2022/05/17 02:13:03;;;;;;;;;4.75;3.75;;;;;;;;5034394;28;45380;-63
2022/05/17 02:15:28;;;;;;;;;2.75;2.75;;;;;;;;5034491;28;45432;-63
2022/05/17 02:17:54;;;;;;;;;6.75;4.25;;;;;;;;5034131;28;45487;-64
2022/05/17 02:20:19;;;;;;;;;2.00;2.00;;;;;;;;5045646;28;46570;-64
2022/05/17 02:22:44;;;;;;;;;3.00;3.00;;;;;;;;5028598;28;45389;-64
2022/05/17 02:25:10;;;;;;;;;6.00;4.00;;;;;;;;5034377;28;45444;-64
2022/05/17 02:27:35;;;;;;;;;3.25;3.25;;;;;;;;5034393;28;45401;-64
2022/05/17 02:30:01;;;;;;;;;2.50;2.00;;;;;;;;5034713;28;46016;-64
2022/05/17 02:32:26;;;;;;;;;2.50;2.50;;;;;;;;5033601;28;45564;-64
2022/05/17 02:34:52;;;;;;;;;3.75;3.75;;;;;;;;5034120;28;45937;-64
2022/05/17 02:37:17;;;;;;;;;3.25;3.25;;;;;;;;5034328;28;45488;-64
2022/05/17 02:39:42;;;;;;;;;3.00;3.00;;;;;;;;5035219;28;46627;-64
2022/05/17 02:42:09;;;;;;;;;4.00;4.00;;;;;;;;5031864;28;45344;-63
2022/05/17 02:44:34;;;;;;;;;5.00;3.25;;;;;;;;5035995;28;45369;-64
2022/05/17 02:46:59;;;;;;;;;3.00;3.00;;;;;;;;5033630;28;45321;-64
2022/05/17 02:49:25;;;;;;;;;5.00;4.00;;;;;;;;5033532;28;45257;-64
2022/05/17 02:51:50;;;;;;;;;4.50;3.25;;;;;;;;5033875;28;45390;-64
2022/05/17 02:54:15;;;;;;;;;3.75;3.75;;;;;;;;5032763;28;45478;-64
2022/05/17 02:56:40;;;;;;;;;3.25;2.25;;;;;;;;5035845;28;45365;-64
2022/05/17 02:59:06;;;;;;;;;3.00;3.00;;;;;;;;5033509;28;46723;-64
2022/05/17 03:01:31;;;;;;;;;4.50;4.00;;;;;;;;5033637;28;45531;-64
2022/05/17 03:03:56;;;;;;;;;3.00;3.00;;;;;;;;5033662;28;45507;-64
2022/05/17 03:06:21;;;;;;;;;4.75;4.25;;;;;;;;5032600;28;45539;-63
2022/05/17 03:08:47;;;;;;;;;3.75;3.75;;;;;;;;5030874;28;46445;-64
2022/05/17 03:11:12;;;;;;;;;4.25;2.75;;;;;;;;5032727;28;45583;-64
2022/05/17 03:13:37;;;;;;;;;3.00;3.00;;;;;;;;5033475;28;45569;-64
2022/05/17 03:16:03;;;;;;;;;4.75;3.00;;;;;;;;5032129;28;45377;-64
2022/05/17 03:18:28;;;;;;;;;3.75;3.75;;;;;;;;5033002;28;45602;-64
2022/05/17 03:20:53;;;;;;;;;2.25;2.00;;;;;;;;5030740;28;45493;-64
2022/05/17 03:23:19;;;;;;;;;5.00;5.00;;;;;;;;5034098;28;45711;-64
2022/05/17 03:25:44;;;;;;;;;3.25;3.00;;;;;;;;5028858;28;45412;-63
2022/05/17 03:28:11;;;;;;;;;4.00;3.00;;;;;;;;5039572;28;48247;-63
2022/05/17 03:30:36;;;;;;;;;2.25;1.75;;;;;;;;5032938;28;45445;-64
2022/05/17 03:33:02;;;;;;;;;5.25;5.00;;;;;;;;5030874;28;45471;-64
2022/05/17 03:35:27;;;;;;;;;3.50;3.50;;;;;;;;5034960;28;45386;-64
2022/05/17 03:37:52;;;;;;;;;2.75;2.75;;;;;;;;5032907;28;45632;-64
2022/05/17 03:40:17;;;;;;;;;2.75;2.75;;;;;;;;5033030;28;45433;-63
2022/05/17 03:42:42;;;;;;;;;6.25;4.50;;;;;;;;5033226;28;45441;-64
2022/05/17 03:45:08;;;;;;;;;3.00;3.00;;;;;;;;5030941;28;45576;-64
2022/05/17 03:47:34;;;;;;;;;5.00;5.00;;;;;;;;5034862;28;46697;-62
2022/05/17 03:49:59;;;;;;;;;6.00;4.75;;;;;;;;5026494;28;45456;-62
2022/05/17 03:52:28;;;;;;;;;4.00;3.00;;;;;;;;5024683;28;45466;-63
2022/05/17 03:54:54;;;;;;;;;4.00;3.00;;;;;;;;5032858;28;45617;-63
2022/05/17 03:57:19;;;;;;;;;6.00;4.50;;;;;;;;5032479;28;45640;-62
2022/05/17 03:59:44;;;;;;;;;4.00;4.00;;;;;;;;5033287;28;45644;-63
2022/05/17 04:02:09;;;;;;;;;3.25;3.25;;;;;;;;5031220;28;45381;-62
2022/05/17 04:04:35;;;;;;;;;5.25;4.50;;;;;;;;5032379;28;45604;-62
2022/05/17 04:07:00;;;;;;;;;4.00;4.00;;;;;;;;5032361;28;45834;-62
2022/05/17 04:09:25;;;;;;;;;6.00;4.75;;;;;;;;5031241;28;45519;-62
2022/05/17 04:11:50;;;;;;;;;5.25;3.25;;;;;;;;5034590;28;45466;-62
2022/05/17 04:14:15;;;;;;;;;4.50;4.50;;;;;;;;5032873;28;45550;-63
2022/05/17 04:16:41;;;;;;;;;3.75;3.75;;;;;;;;5032135;28;46167;-64
2022/05/17 04:19:06;;;;;;;;;4.75;4.75;;;;;;;;5032368;28;45385;-63
2022/05/17 04:21:34;;;;;;;;;5.25;5.25;;;;;;;;5031726;28;45437;-63
2022/05/17 04:23:59;;;;;;;;;5.75;5.00;;;;;;;;5031641;28;45334;-65
2022/05/17 04:26:24;;;;;;;;;6.00;6.00;;;;;;;;5031923;28;45406;-64
2022/05/17 04:28:50;;;;;;;;;5.50;4.50;;;;;;;;5030873;28;45366;-64
2022/05/17 04:31:15;;;;;;;;;5.50;5.50;;;;;;;;5032141;28;45527;-63
2022/05/17 04:33:41;;;;;;;;;4.50;4.50;;;;;;;;5030415;28;45469;-64
2022/05/17 04:36:06;;;;;;;;;5.00;5.00;;;;;;;;5031962;28;46345;-63
2022/05/17 04:38:31;;;;;;;;;4.75;4.75;;;;;;;;5033987;28;45683;-64
2022/05/17 04:40:56;;;;;;;;;5.50;5.25;;;;;;;;5032003;28;45767;-64
2022/05/17 04:43:22;;;;;;;;;7.00;7.00;;;;;;;;5031922;28;45343;-63
2022/05/17 04:45:47;;;;;;;;;5.25;5.25;;;;;;;;5032090;28;46519;-63
2022/05/17 04:48:12;;;;;;;;;9.50;7.50;;;;;;;;5031859;28;45512;-63
2022/05/17 04:50:38;;;;;;;;;5.25;5.00;;;;;;;;5034210;28;45477;-64
2022/05/17 04:53:03;;;;;;;;;7.75;6.25;;;;;;;;5031992;28;45455;-63
2022/05/17 04:55:29;;;;;;;;;4.75;4.75;;;;;;;;5031680;28;45534;-63
2022/05/17 04:57:55;;;;;;;;;8.00;6.50;;;;;;;;5031870;28;45747;-64
2022/05/17 05:00:21;;;;;;;;;6.00;5.00;;;;;;;;5032231;28;45639;-63
2022/05/17 05:02:46;;;;;;;;;6.00;6.00;;;;;;;;5028349;28;45579;-63
2022/05/17 05:05:12;;;;;;;;;9.50;6.25;;;;;;;;5026892;28;46431;-63
2022/05/17 05:07:37;;;;;;;;;8.00;5.00;;;;;;;;5025209;28;45533;-63
2022/05/17 05:10:03;;;;;;;;;7.25;6.00;;;;;;;;5031772;28;45472;-64
2022/05/17 05:12:30;;;;;;;;;4.25;4.25;;;;;;;;5030793;28;45346;-64
2022/05/17 05:14:56;;;;;;;;;6.25;6.25;;;;;;;;5031316;28;47599;-64
2022/05/17 05:17:21;;;;;;;;;10.25;5.50;;;;;;;;5030955;28;45419;-64
2022/05/17 05:19:46;;;;;;;;;4.75;4.75;;;;;;;;5031500;28;45528;-64
2022/05/17 05:22:11;;;;;;;;;8.00;7.75;;;;;;;;5031735;28;45433;-64
2022/05/17 05:24:36;;;;;;;;;7.50;6.50;;;;;;;;5031442;28;45653;-64
2022/05/17 05:27:02;;;;;;;;;9.50;6.50;;;;;;;;5032308;28;45374;-65
2022/05/17 05:29:27;;;;;;;;;12.25;10.75;;;;;;;;5033062;28;45385;-64
2022/05/17 05:31:52;;;;;;;;;13.00;10.00;;;;;;;;5029712;28;45681;-64
2022/05/17 05:34:17;;;;;;;;;13.75;10.25;;;;;;;;5031592;28;46398;-64
2022/05/17 05:36:44;;;;;;;;;9.25;9.00;;;;;;;;5034770;28;45522;-64
2022/05/17 05:39:09;;;;;;;;;10.00;10.00;;;;;;;;5034944;28;45623;-63
2022/05/17 05:41:34;;;;;;;;;15.25;12.50;;;;;;;;5036589;28;45512;-65
2022/05/17 05:44:00;;;;;;;;;15.25;13.00;;;;;;;;5034394;28;46897;-64
2022/05/17 05:46:25;;;;;;;;;12.50;12.50;;;;;;;;5033156;28;45650;-64
2022/05/17 05:48:50;;;;;;;;;10.50;9.25;;;;;;;;5026970;28;45648;-66
2022/05/17 05:51:16;;;;;;;;;13.75;13.00;;;;;;;;5020949;28;45653;-63
2022/05/17 05:53:41;;;;;;;;;20.25;18.00;;;;;;;;5032616;28;45983;-65
2022/05/17 05:56:06;;;;;;;;;16.75;13.25;;;;;;;;5031903;28;45632;-64
2022/05/17 05:58:32;;;;;;;;;13.75;13.75;;;;;;;;5033997;28;45456;-64
2022/05/17 06:00:58;;;;;;;;;11.50;11.00;;;;;;;;5031744;28;45388;-66
2022/05/17 06:03:24;;;;;;;;;14.00;14.00;;;;;;;;5033165;28;45752;-64
2022/05/17 06:05:49;;;;;;;;;12.00;12.00;;;;;;;;5033282;28;45701;-64
2022/05/17 06:08:15;;;;;;;;;15.75;14.50;;;;;;;;5032008;28;45412;-65
2022/05/17 06:10:41;;;;;;;;;10.75;9.50;;;;;;;;5033497;28;45325;-64
2022/05/17 06:13:07;;;;;;;;;10.75;10.75;;;;;;;;5032986;28;45928;-64
2022/05/17 06:15:32;;;;;;;;;13.50;11.25;;;;;;;;5033349;28;45378;-63
2022/05/17 06:18:01;;;;;;;;;12.25;12.25;;;;;;;;5033534;28;45346;-65
2022/05/17 06:20:26;;;;;;;;;9.50;7.75;;;;;;;;5032697;28;46590;-64
2022/05/17 06:22:51;;;;;;;;;14.75;13.00;;;;;;;;5033523;28;46226;-65
2022/05/17 06:25:17;;;;;;;;;12.50;11.50;;;;;;;;5027499;28;45519;-65
2022/05/17 06:27:42;;;;;;;;;12.50;12.50;;;;;;;;5035513;28;45533;-65
2022/05/17 06:30:07;;;;;;;;;10.00;10.00;;;;;;;;5033761;28;45674;-66
2022/05/17 06:32:33;;;;;;;;;8.00;6.25;;;;;;;;5035835;28;46175;-66
2022/05/17 06:35:00;;;;;;;;;9.50;9.50;;;;;;;;5033602;28;45350;-65
2022/05/17 06:37:25;;;;;;;;;11.75;8.50;;;;;;;;5046016;28;45536;-66
2022/05/17 06:39:50;;;;;;;;;8.00;8.00;;;;;;;;5053116;28;46097;-66
2022/05/17 06:42:15;;;;;;;;;6.00;4.75;;;;;;;;5033162;28;46217;-66
2022/05/17 06:44:41;;;;;;;;;5.00;5.00;;;;;;;;5034451;28;45478;-66
2022/05/17 06:47:06;;;;;;;;;7.00;7.00;;;;;;;;5033468;28;45995;-65
2022/05/17 06:49:32;;;;;;;;;6.25;6.25;;;;;;;;5033521;28;45645;-65
2022/05/17 06:52:00;;;;;;;;;7.25;6.50;;;;;;;;5033469;28;46481;-66
2022/05/17 06:54:26;;;;;;;;;6.75;5.75;;;;;;;;5033702;28;45381;-66
2022/05/17 06:56:51;;;;;;;;;8.00;6.25;;;;;;;;5035387;28;45542;-65
2022/05/17 06:59:18;;;;;;;;;7.00;7.00;;;;;;;;5033687;28;45623;-65
2022/05/17 07:01:43;;;;;;;;;5.50;5.00;;;;;;;;5045408;28;47391;-65
2022/05/17 07:04:09;;;;;;;;;7.25;6.00;;;;;;;;5022976;28;45470;-66
2022/05/17 07:06:35;;;;;;;;;8.50;8.00;;;;;;;;5033522;28;45424;-66
2022/05/17 07:09:00;;;;;;;;;6.00;5.00;;;;;;;;5034472;28;45322;-65
2022/05/17 07:14:09;;;;;;;;;8.25;6.50;;;;;;;;5032086;28;45527;-66
2022/05/17 07:16:34;;;;;;;;;5.00;5.00;;;;;;;;5033026;28;45470;-67
2022/05/17 07:19:00;;;;;;;;;8.00;7.00;;;;;;;;5033013;28;45418;-66
2022/05/17 07:21:25;;;;;;;;;6.25;5.00;;;;;;;;5032789;28;45432;-66
2022/05/17 07:23:51;;;;;;;;;6.00;6.00;;;;;;;;5035032;28;45310;-64
2022/05/17 07:26:16;;;;;;;;;5.00;5.00;;;;;;;;5031472;28;45429;-67
2022/05/17 07:28:43;;;;;;;;;6.50;5.00;;;;;;;;5030730;28;45449;-66
2022/05/17 07:31:09;;;;;;;;;5.75;5.75;;;;;;;;5030690;28;45910;-64
2022/05/17 07:33:34;;;;;;;;;7.00;7.00;;;;;;;;5031453;28;45800;-67
2022/05/17 07:36:01;;;;;;;;;7.50;6.25;;;;;;;;5034027;28;45480;-66
2022/05/17 07:38:26;;;;;;;;;5.50;5.50;;;;;;;;5034159;28;45568;-66
2022/05/17 07:40:53;;;;;;;;;3.00;3.00;;;;;;;;5031420;28;48235;-67
2022/05/17 07:43:18;;;;;;;;;8.00;8.00;;;;;;;;5033448;28;45840;-68
2022/05/17 07:45:44;;;;;;;;;6.25;6.25;;;;;;;;5048604;28;45389;-67
2022/05/17 07:48:10;;;;;;;;;7.50;7.25;;;;;;;;5032635;28;45603;-66
2022/05/17 07:50:35;;;;;;;;;8.00;7.00;;;;;;;;5033143;28;47979;-66
2022/05/17 07:53:04;;;;;;;;;7.00;6.00;;;;;;;;5030641;28;46420;-64
2022/05/17 07:55:29;;;;;;;;;4.00;4.00;;;;;;;;5030902;28;45677;-66
2022/05/17 07:57:55;;;;;;;;;7.00;4.75;;;;;;;;5031032;28;45419;-65
2022/05/17 08:00:20;;;;;;;;;6.75;5.25;;;;;;;;5029931;28;46626;-66
2022/05/17 08:02:45;;;;;;;;;4.25;4.25;;;;;;;;5033985;28;45399;-66
2022/05/17 08:05:11;;;;;;;;;6.00;5.00;;;;;;;;5032439;28;45580;-64
2022/05/17 08:07:36;;;;;;;;;4.00;4.00;;;;;;;;5028315;28;45380;-66
2022/05/17 08:10:03;;;;;;;;;4.25;4.25;;;;;;;;5021982;28;46526;-64
2022/05/17 08:12:28;;;;;;;;;4.75;4.75;;;;;;;;5032483;28;45630;-65
2022/05/17 08:14:53;;;;;;;;;5.00;5.00;;;;;;;;5034124;28;45421;-66
2022/05/17 08:17:19;;;;;;;;;6.00;5.50;;;;;;;;5033088;28;45776;-65
2022/05/17 08:19:44;;;;;;;;;5.50;4.00;;;;;;;;5032149;28;45840;-66
2022/05/17 08:22:14;;;;;;;;;5.00;4.25;;;;;;;;5029657;28;46445;-66
2022/05/17 08:27:32;;;;;;;;;2.50;2.50;;;;;;;;5016971;28;45437;-66
2022/05/17 08:30:00;;;;;;;;;4.25;3.25;;;;;;;;5033590;28;45579;-66
2022/05/17 08:35:09;;;;;;;;;3.75;2.75;;;;;;;;5032007;28;45811;-65
2022/05/17 08:37:35;;;;;;;;;4.00;2.50;;;;;;;;5030956;28;45522;-67
2022/05/17 08:40:00;;;;;;;;;4.00;3.00;;;;;;;;5030250;28;45876;-66
2022/05/17 08:42:34;;;;;;;;;2.75;2.75;;;;;;;;5032175;28;45463;-66
2022/05/17 08:45:02;;;;;;;;;2.25;2.25;;;;;;;;5033578;28;45459;-66
2022/05/17 08:47:31;;;;;;;;;2.50;2.00;;;;;;;;5028886;28;45426;-67
2022/05/17 08:50:08;;;;;;;;;3.25;3.25;;;;;;;;5028940;28;46598;-67
2022/05/17 08:52:36;;;;;;;;;3.00;3.00;;;;;;;;5031619;28;45735;-67
2022/05/17 08:55:13;;;;;;;;;3.50;3.50;;;;;;;;5031704;28;45540;-64
2022/05/17 08:57:43;;;;;;;;;2.25;2.25;;;;;;;;5031969;28;45366;-65
2022/05/17 09:00:10;;;;;;;;;3.00;3.00;;;;;;;;5030923;28;46447;-66
2022/05/17 09:02:35;;;;;;;;;2.00;2.00;;;;;;;;5033768;28;45519;-66
2022/05/17 09:05:03;;;;;;;;;2.50;2.50;;;;;;;;5027334;28;45931;-66
2022/05/17 09:07:35;;;;;;;;;2.25;2.25;;;;;;;;5024629;28;45555;-66
2022/05/17 09:10:03;;;;;;;;;2.00;2.00;;;;;;;;5035275;28;45806;-66
2022/05/17 09:12:28;;;;;;;;;2.00;2.00;;;;;;;;5033716;28;45564;-67
2022/05/17 09:14:56;;;;;;;;;1.00;1.00;;;;;;;;5037062;28;45452;-67
2022/05/17 09:17:24;;;;;;;;;4.25;2.00;;;;;;;;5034495;28;45618;-67
2022/05/17 09:19:50;;;;;;;;;1.00;1.00;;;;;;;;5047100;28;47601;-67
2022/05/17 09:22:15;;;;;;;;;0.75;0.75;;;;;;;;5025123;28;45844;-68
2022/05/17 09:24:42;;;;;;;;;0.75;0.75;;;;;;;;5033256;28;45461;-67
2022/05/17 09:27:20;;;;;;;;;0.00;0.00;;;;;;;;5034446;28;45472;-66
2022/05/17 09:29:46;;;;;;;;;1.25;1.00;;;;;;;;5036590;28;45459;-67
2022/05/17 09:32:12;;;;;;;;;2.75;1.00;;;;;;;;5034699;28;45477;-66
2022/05/17 09:34:40;;;;;;;;;1.50;1.00;;;;;;;;5034923;28;45524;-67
2022/05/17 09:37:12;;;;;;;;;1.00;1.00;;;;;;;;5034922;28;45472;-67
2022/05/17 09:39:37;;;;;;;;;1.00;1.00;;;;;;;;5033495;28;46540;-66
2022/05/17 09:42:07;;;;;;;;;2.00;2.00;;;;;;;;5035500;28;45383;-67
2022/05/17 09:44:33;;;;;;;;;1.00;1.00;;;;;;;;5034646;28;45535;-67
2022/05/17 09:47:05;;;;;;;;;2.50;1.00;;;;;;;;5035086;28;45721;-68
2022/05/17 09:52:33;;;;;;;;;1.25;1.00;;;;;;;;5034482;28;45460;-67
2022/05/17 09:55:07;;;;;;;;;1.00;1.00;;;;;;;;5034801;28;45800;-67
2022/05/17 09:57:33;;;;;;;;;1.00;1.00;;;;;;;;5034830;28;45388;-67
2022/05/17 10:00:08;;;;;;;;;1.00;1.00;;;;;;;;5034059;28;47646;-67
2022/05/17 10:02:47;;;;;;;;;0.75;0.75;;;;;;;;5034514;28;45392;-67
2022/05/17 10:05:18;;;;;;;;;1.00;1.00;;;;;;;;5030314;28;45413;-66
2022/05/17 10:07:48;;;;;;;;;2.00;2.00;;;;;;;;5041117;28;46968;-67
2022/05/17 10:10:22;;;;;;;;;1.00;1.00;;;;;;;;5023756;28;46046;-67
2022/05/17 10:12:48;;;;;;;;;1.00;1.00;;;;;;;;5034202;28;45354;-67
2022/05/17 10:15:14;;;;;;;;;1.00;0.75;;;;;;;;5034543;28;45583;-66
2022/05/17 10:17:45;;;;;;;;;0.25;0.25;;;;;;;;5036432;28;45361;-69
2022/05/17 10:20:23;;;;;;;;;0.75;0.75;;;;;;;;5032017;28;45817;-66
2022/05/17 10:22:58;;;;;;;;;0.75;0.75;;;;;;;;5032808;28;45893;-66
2022/05/17 10:25:25;;;;;;;;;1.25;0.25;;;;;;;;5032566;28;45372;-65
2022/05/17 10:27:57;;;;;;;;;1.00;0.75;;;;;;;;5034118;28;45436;-67
2022/05/17 10:30:26;;;;;;;;;0.00;0.00;;;;;;;;5032545;28;46698;-67
2022/05/17 10:32:56;;;;;;;;;0.00;0.00;;;;;;;;5034748;28;45452;-68
2022/05/17 10:35:27;;;;;;;;;0.00;0.00;;;;;;;;5034687;28;45480;-68
2022/05/17 10:38:02;;;;;;;;;0.00;0.00;;;;;;;;5034080;28;45737;-68
2022/05/17 10:40:30;;;;;;;;;0.00;0.00;;;;;;;;5033574;28;45494;-67
2022/05/17 10:42:56;;;;;;;;;0.50;0.50;;;;;;;;5033936;28;45524;-66
2022/05/17 10:45:32;;;;;;;;;0.75;0.75;;;;;;;;5033902;28;45507;-67
2022/05/17 10:48:02;;;;;;;;;1.00;1.00;;;;;;;;5031452;28;45505;-66
2022/05/17 10:50:57;;;;;;;;;1.00;0.00;;;;;;;;5035101;28;45883;-66
2022/05/17 10:53:25;;;;;;;;;0.00;0.00;;;;;;;;5025015;28;45591;-67
2022/05/17 10:55:53;;;;;;;;;0.75;0.75;;;;;;;;5032043;28;47832;-65
2022/05/17 10:58:30;;;;;;;;;1.00;1.00;;;;;;;;5032298;28;45514;-64
2022/05/17 11:01:15;;;;;;;;;0.75;0.75;;;;;;;;5033374;28;46482;-66
2022/05/17 11:03:44;;;;;;;;;1.75;1.50;;;;;;;;4991689;28;45575;-64
2022/05/17 11:06:19;;;;;;;;;0.75;0.75;;;;;;;;4991869;28;45488;-66
2022/05/17 11:08:53;;;;;;;;;0.75;0.75;;;;;;;;4993494;28;45581;-66
2022/05/17 11:11:22;;;;;;;;;1.00;1.00;;;;;;;;4990526;28;46346;-66
2022/05/17 11:13:53;;;;;;;;;1.00;1.00;;;;;;;;4991404;28;45612;-66
2022/05/17 11:16:18;;;;;;;;;1.00;1.00;;;;;;;;4991872;28;45572;-65
2022/05/17 11:18:49;;;;;;;;;2.50;0.75;;;;;;;;4991565;28;45544;-66
2022/05/17 11:21:37;;;;;;;;;1.75;1.75;;;;;;;;4975011;28;46609;-66
2022/05/17 11:24:05;;;;;;;;;1.00;1.00;;;;;;;;4989757;28;45455;-67
2022/05/17 11:26:33;;;;;;;;;1.75;1.75;;;;;;;;4992820;28;46567;-66
2022/05/17 11:28:58;;;;;;;;;2.00;2.00;;;;;;;;4991241;28;45556;-65
2022/05/17 11:31:42;;;;;;;;;1.50;1.50;;;;;;;;4994065;28;46503;-65
2022/05/17 11:34:26;;;;;;;;;1.00;1.00;;;;;;;;4991849;28;46151;-66
2022/05/17 11:36:52;;;;;;;;;1.00;1.00;;;;;;;;4991285;28;45518;-66
2022/05/17 11:39:36;;;;;;;;;1.25;1.25;;;;;;;;4974689;28;45689;-65
2022/05/17 11:42:06;;;;;;;;;2.25;1.00;;;;;;;;5030886;28;46392;-66
2022/05/17 11:44:52;;;;;;;;;2.00;2.00;;;;;;;;5032525;28;45477;-67
2022/05/17 11:47:34;;;;;;;;;2.25;2.25;;;;;;;;5032105;28;45398;-66
2022/05/17 11:50:11;;;;;;;;;2.00;2.00;;;;;;;;5032636;28;45499;-66
2022/05/17 11:52:36;;;;;;;;;1.00;1.00;;;;;;;;5032353;28;46756;-66
2022/05/17 11:55:02;;;;;;;;;2.00;1.75;;;;;;;;5032579;28;45486;-65
2022/05/17 11:57:27;;;;;;;;;3.50;2.50;;;;;;;;5033090;28;45502;-65
2022/05/17 11:59:54;;;;;;;;;3.00;2.00;;;;;;;;5029801;28;45711;-66
2022/05/17 12:02:39;;;;;;;;;2.25;2.25;;;;;;;;5031113;28;45414;-66
2022/05/17 12:05:04;;;;;;;;;1.75;1.25;;;;;;;;5031170;28;45576;-66
2022/05/17 12:07:30;;;;;;;;;3.75;2.00;;;;;;;;5031085;28;45553;-65
2022/05/17 12:09:57;;;;;;;;;2.25;2.25;;;;;;;;5031198;28;45346;-68
2022/05/17 12:12:27;;;;;;;;;3.00;3.00;;;;;;;;5030175;28;46374;-67
2022/05/17 12:14:55;;;;;;;;;3.50;2.25;;;;;;;;5031468;28;46120;-65
2022/05/17 12:17:24;;;;;;;;;2.25;1.75;;;;;;;;5046899;28;45749;-66
2022/05/17 12:20:06;;;;;;;;;3.00;3.00;;;;;;;;5030998;28;45519;-68
2022/05/17 12:22:32;;;;;;;;;2.00;2.00;;;;;;;;5030824;28;45949;-67
2022/05/17 12:25:10;;;;;;;;;2.25;1.75;;;;;;;;5029618;28;45608;-68
2022/05/17 12:27:40;;;;;;;;;2.00;2.00;;;;;;;;5029821;28;45857;-67
2022/05/17 12:33:03;;;;;;;;;3.75;3.75;;;;;;;;5028887;28;46175;-67
2022/05/17 12:35:28;;;;;;;;;4.00;4.00;;;;;;;;5029546;28;45518;-68
2022/05/17 12:37:53;;;;;;;;;2.75;2.75;;;;;;;;5030621;28;45397;-68
2022/05/17 12:43:31;;;;;;;;;4.00;3.25;;;;;;;;5042407;28;45572;-68
2022/05/17 12:46:01;;;;;;;;;4.50;3.25;;;;;;;;5043884;28;45797;-68
2022/05/17 12:48:34;;;;;;;;;3.50;3.50;;;;;;;;5032776;28;45578;-67
2022/05/17 12:51:01;;;;;;;;;4.25;4.25;;;;;;;;5046374;28;45533;-67
2022/05/17 12:53:29;;;;;;;;;3.50;3.50;;;;;;;;5036151;28;45861;-67
2022/05/17 12:55:56;;;;;;;;;8.50;8.50;;;;;;;;5039838;28;45805;-68
2022/05/17 12:58:21;;;;;;;;;3.25;2.75;;;;;;;;5025030;28;45501;-67
2022/05/17 13:00:51;;;;;;;;;3.50;3.50;;;;;;;;5029693;28;45595;-67
2022/05/17 13:03:19;;;;;;;;;4.00;4.00;;;;;;;;5046968;28;46642;-67
2022/05/17 13:05:48;;;;;;;;;3.50;3.00;;;;;;;;5045837;28;45732;-67
2022/05/17 13:08:30;;;;;;;;;3.25;3.25;;;;;;;;5043171;28;45766;-67
2022/05/17 13:11:18;;;;;;;;;2.50;2.50;;;;;;;;5026083;28;45561;-68
2022/05/17 13:13:44;;;;;;;;;4.50;3.00;;;;;;;;5043266;28;46224;-68
2022/05/17 13:16:14;;;;;;;;;4.00;4.00;;;;;;;;5027508;28;45578;-67
2022/05/17 13:18:43;;;;;;;;;2.00;2.00;;;;;;;;5016714;28;45484;-68
2022/05/17 13:21:15;;;;;;;;;3.00;3.00;;;;;;;;5029887;28;45401;-68
2022/05/17 13:23:43;;;;;;;;;4.50;3.50;;;;;;;;5032232;28;45993;-67
2022/05/17 13:26:10;;;;;;;;;4.00;4.00;;;;;;;;5029836;28;45364;-68
2022/05/17 13:28:36;;;;;;;;;4.00;4.00;;;;;;;;5030124;28;45576;-68
2022/05/17 13:31:18;;;;;;;;;4.00;4.00;;;;;;;;5029967;28;45512;-69
2022/05/17 13:34:00;;;;;;;;;4.00;3.00;;;;;;;;5028238;28;45737;-68
2022/05/17 13:36:33;;;;;;;;;3.00;3.00;;;;;;;;5029048;28;45627;-67
2022/05/17 13:38:59;;;;;;;;;3.00;3.00;;;;;;;;5031647;28;45451;-68
2022/05/17 13:41:30;;;;;;;;;5.00;5.00;;;;;;;;5028668;28;45559;-67
2022/05/17 13:43:57;;;;;;;;;3.25;3.25;;;;;;;;5042022;28;48642;-67
2022/05/17 13:46:24;;;;;;;;;3.75;3.75;;;;;;;;5020580;28;45496;-67
2022/05/17 13:48:49;;;;;;;;;4.25;3.75;;;;;;;;5029902;28;45443;-67
2022/05/17 13:51:16;;;;;;;;;5.00;4.00;;;;;;;;5029825;28;45343;-67
2022/05/17 13:53:44;;;;;;;;;2.50;2.50;;;;;;;;5030741;28;48639;-67
2022/05/17 13:56:09;;;;;;;;;3.00;3.00;;;;;;;;5030954;28;45485;-67
2022/05/17 13:58:35;;;;;;;;;3.25;2.75;;;;;;;;5033140;28;45717;-67
2022/05/17 14:01:08;;;;;;;;;3.00;3.00;;;;;;;;5031465;28;45525;-67
2022/05/17 14:03:33;;;;;;;;;3.25;3.25;;;;;;;;5029906;28;48436;-68
2022/05/17 14:06:09;;;;;;;;;3.25;3.25;;;;;;;;5036016;28;45425;-68
2022/05/17 14:14:11;;;;;;;;;5.00;2.75;;;;;;;;5031226;28;45758;-67
2022/05/17 14:16:40;;;;;;;;;3.75;3.00;;;;;;;;5032855;28;45807;-67
2022/05/17 14:19:10;;;;;;;;;5.00;4.25;;;;;;;;5031533;28;45508;-68
2022/05/17 14:21:35;;;;;;;;;5.25;4.00;;;;;;;;5032645;28;45368;-67
2022/05/17 14:24:01;;;;;;;;;3.75;2.75;;;;;;;;5030452;28;45672;-68
2022/05/17 14:26:26;;;;;;;;;4.00;4.00;;;;;;;;5033544;28;45579;-68
2022/05/17 14:28:51;;;;;;;;;3.75;3.75;;;;;;;;5032989;28;45400;-68
2022/05/17 14:31:21;;;;;;;;;4.00;4.00;;;;;;;;5032376;28;45618;-67
2022/05/17 14:33:49;;;;;;;;;4.00;4.00;;;;;;;;5032730;28;45823;-68
2022/05/17 14:36:16;;;;;;;;;3.25;3.25;;;;;;;;5032863;28;45409;-67
2022/05/17 14:38:41;;;;;;;;;2.75;2.75;;;;;;;;5034019;28;45516;-68
2022/05/17 14:41:06;;;;;;;;;3.00;3.00;;;;;;;;5032325;28;45487;-67
2022/05/17 14:43:32;;;;;;;;;2.50;2.00;;;;;;;;5030991;28;48528;-68
2022/05/17 14:45:58;;;;;;;;;3.00;3.00;;;;;;;;5030793;28;45632;-67
2022/05/17 14:48:25;;;;;;;;;1.75;1.75;;;;;;;;5032845;28;47796;-67
2022/05/17 14:50:50;;;;;;;;;2.00;2.00;;;;;;;;5030318;28;45441;-67
2022/05/17 14:53:15;;;;;;;;;4.00;4.00;;;;;;;;5031314;28;45670;-67
2022/05/17 14:55:41;;;;;;;;;2.75;1.75;;;;;;;;5032256;28;45442;-66
2022/05/17 14:58:06;;;;;;;;;3.00;3.00;;;;;;;;5032235;28;45566;-67
2022/05/17 15:00:33;;;;;;;;;2.75;2.75;;;;;;;;5032239;28;45651;-67
2022/05/17 15:03:01;;;;;;;;;5.00;4.00;;;;;;;;5033484;28;45860;-67
2022/05/17 15:05:26;;;;;;;;;3.75;3.00;;;;;;;;5031739;28;45647;-66
2022/05/17 15:07:53;;;;;;;;;4.00;3.00;;;;;;;;5027152;28;45434;-67
2022/05/17 15:10:20;;;;;;;;;4.50;3.75;;;;;;;;5022494;28;45394;-67